createdAt,value
2023-05-17T00:00:07.427Z,21.74
2023-05-17T00:01:07.503Z,21.82
2023-05-17T00:02:07.584Z,21.79
2023-05-17T00:03:07.661Z,21.52
2023-05-17T00:04:07.704Z,21.43
2023-05-17T00:05:07.713Z,21.22
2023-05-17T00:06:07.814Z,21.29
2023-05-17T00:07:08.032Z,21.32
2023-05-17T00:08:07.799Z,21.36
2023-05-17T00:09:07.817Z,21.39
2023-05-17T00:10:07.817Z,21.49
2023-05-17T00:11:07.835Z,21.29
2023-05-17T00:12:07.855Z,21.35
2023-05-17T00:13:07.891Z,21.01
2023-05-17T00:14:07.895Z,21.26
2023-05-17T00:15:07.888Z,20.96
2023-05-17T00:16:07.911Z,21.04
2023-05-17T00:17:07.968Z,20.88
2023-05-17T00:18:08.180Z,20.75
2023-05-17T00:19:08.243Z,20.74
2023-05-17T00:20:08.209Z,20.80
2023-05-17T00:21:08.289Z,20.58
2023-05-17T00:22:08.352Z,20.71
2023-05-17T00:23:08.469Z,20.56
2023-05-17T00:24:08.441Z,20.66
2023-05-17T00:25:08.491Z,20.71
2023-05-17T00:26:08.503Z,20.73
2023-05-17T00:27:08.545Z,20.74
2023-05-17T00:28:08.528Z,20.73
2023-05-17T00:29:08.545Z,20.64
2023-05-17T00:30:08.554Z,20.31
2023-05-17T00:31:08.571Z,20.61
2023-05-17T00:32:08.581Z,20.46
2023-05-17T00:33:08.739Z,20.35
2023-05-17T00:34:08.618Z,20.20
2023-05-17T00:35:08.725Z,20.15
2023-05-17T00:36:08.730Z,20.16
2023-05-17T00:37:08.794Z,20.02
2023-05-17T00:38:08.853Z,19.98
2023-05-17T00:39:09.019Z,19.51
2023-05-17T00:40:08.998Z,19.72
2023-05-17T00:41:09.061Z,19.74
2023-05-17T00:42:09.138Z,19.62
2023-05-17T00:43:09.214Z,19.78
2023-05-17T00:44:09.292Z,19.62
2023-05-17T00:45:09.363Z,19.25
2023-05-17T00:46:09.437Z,19.66
2023-05-17T00:47:09.556Z,19.28
2023-05-17T00:48:09.582Z,19.22
2023-05-17T00:49:09.564Z,19.17
2023-05-17T00:50:09.576Z,18.95
2023-05-17T00:51:09.629Z,19.18
2023-05-17T00:52:09.668Z,18.93
2023-05-17T00:53:09.701Z,18.98
2023-05-17T00:54:09.712Z,18.85
2023-05-17T00:55:09.918Z,18.76
2023-05-17T00:56:09.814Z,18.64
2023-05-17T00:57:09.864Z,18.79
2023-05-17T00:58:09.912Z,18.70
2023-05-17T00:59:09.980Z,18.62
2023-05-17T01:00:10.072Z,18.75
2023-05-17T01:01:10.105Z,18.56
2023-05-17T01:02:10.162Z,18.59
2023-05-17T01:03:10.346Z,18.38
2023-05-17T01:04:10.412Z,18.49
2023-05-17T01:05:10.315Z,18.18
2023-05-17T01:06:10.366Z,18.27
2023-05-17T01:07:10.404Z,18.23
2023-05-17T01:08:10.419Z,17.90
2023-05-17T01:09:10.446Z,18.15
2023-05-17T01:10:10.459Z,18.00
2023-05-17T01:11:10.620Z,18.12
2023-05-17T01:12:10.495Z,17.40
2023-05-17T01:13:10.529Z,17.97
2023-05-17T01:14:10.560Z,17.33
2023-05-17T01:15:10.591Z,17.50
2023-05-17T01:16:10.661Z,17.74
2023-05-17T01:17:10.621Z,17.22
2023-05-17T01:18:10.745Z,17.13
2023-05-17T01:19:10.753Z,17.01
2023-05-17T01:20:10.742Z,16.93
2023-05-17T01:21:10.681Z,17.22
2023-05-17T01:22:10.708Z,16.98
2023-05-17T01:23:10.747Z,17.18
2023-05-17T01:24:10.749Z,16.91
2023-05-17T01:25:10.759Z,16.98
2023-05-17T01:26:10.808Z,16.68
2023-05-17T01:27:10.865Z,16.72
2023-05-17T01:28:10.818Z,16.81
2023-05-17T01:29:10.811Z,16.92
2023-05-17T01:30:10.901Z,16.89
2023-05-17T01:31:10.815Z,16.80
2023-05-17T01:32:10.827Z,16.67
2023-05-17T01:33:10.933Z,16.56
2023-05-17T01:34:10.854Z,16.70
2023-05-17T01:35:10.832Z,16.60
2023-05-17T01:36:10.865Z,16.35
2023-05-17T01:37:10.858Z,16.78
2023-05-17T01:38:10.874Z,16.36
2023-05-17T01:39:10.873Z,16.50
2023-05-17T01:40:10.922Z,16.31
2023-05-17T01:41:10.900Z,16.52
2023-05-17T01:42:10.911Z,16.16
2023-05-17T01:43:11.022Z,16.25
2023-05-17T01:44:10.973Z,16.10
2023-05-17T01:45:10.993Z,16.03
2023-05-17T01:46:11.022Z,15.97
2023-05-17T01:47:11.053Z,15.89
2023-05-17T01:48:11.242Z,15.82
2023-05-17T01:49:11.088Z,15.84
2023-05-17T01:50:11.105Z,15.74
2023-05-17T01:51:11.122Z,15.84
2023-05-17T01:52:11.168Z,15.71
2023-05-17T01:53:11.196Z,15.63
2023-05-17T01:54:11.230Z,15.49
2023-05-17T01:55:11.276Z,15.69
2023-05-17T01:56:11.284Z,15.43
2023-05-17T01:57:11.324Z,15.42
2023-05-17T01:58:11.337Z,15.46
2023-05-17T01:59:11.443Z,15.52
2023-05-17T02:00:11.362Z,15.49
2023-05-17T02:01:11.383Z,15.49
2023-05-17T02:02:11.431Z,15.61
2023-05-17T02:03:11.428Z,15.41
2023-05-17T02:04:11.467Z,15.26
2023-05-17T02:05:11.456Z,15.31
2023-05-17T02:06:11.435Z,15.35
2023-05-17T02:07:11.446Z,15.40
2023-05-17T02:08:11.448Z,15.56
2023-05-17T02:09:11.453Z,15.44
2023-05-17T02:10:11.476Z,15.35
2023-05-17T02:11:11.477Z,15.38
2023-05-17T02:12:11.505Z,15.32
2023-05-17T02:13:11.515Z,15.23
2023-05-17T02:14:11.513Z,15.08
2023-05-17T02:15:11.551Z,15.02
2023-05-17T02:16:11.534Z,14.97
2023-05-17T02:17:11.573Z,14.87
2023-05-17T02:18:11.685Z,14.82
2023-05-17T02:19:11.612Z,14.78
2023-05-17T02:20:11.562Z,14.66
2023-05-17T02:21:11.574Z,14.76
2023-05-17T02:22:11.595Z,14.71
2023-05-17T02:23:11.586Z,14.70
2023-05-17T02:24:11.584Z,14.69
2023-05-17T02:25:11.605Z,14.57
2023-05-17T02:26:11.596Z,14.49
2023-05-17T02:27:11.594Z,14.47
2023-05-17T02:28:11.601Z,14.35
2023-05-17T02:29:11.601Z,14.27
2023-05-17T02:30:11.596Z,14.38
2023-05-17T02:31:11.863Z,14.26
2023-05-17T02:32:11.600Z,14.18
2023-05-17T02:33:11.725Z,14.20
2023-05-17T02:34:11.610Z,14.17
2023-05-17T02:35:11.613Z,14.11
2023-05-17T02:36:11.639Z,14.23
2023-05-17T02:37:11.620Z,14.13
2023-05-17T02:38:11.626Z,14.05
2023-05-17T02:39:11.624Z,13.95
2023-05-17T02:40:11.632Z,13.93
2023-05-17T02:41:11.629Z,13.85
2023-05-17T02:42:11.637Z,13.91
2023-05-17T02:43:11.662Z,13.74
2023-05-17T02:44:11.660Z,13.72
2023-05-17T02:45:11.659Z,13.80
2023-05-17T02:46:11.671Z,13.63
2023-05-17T02:47:11.854Z,13.66
2023-05-17T02:48:11.708Z,13.67
2023-05-17T02:49:11.674Z,13.54
2023-05-17T02:50:11.684Z,13.55
2023-05-17T02:51:11.687Z,13.47
2023-05-17T02:52:11.704Z,13.38
2023-05-17T02:53:11.709Z,13.34
2023-05-17T02:54:11.716Z,13.36
2023-05-17T02:55:11.705Z,13.36
2023-05-17T02:56:11.722Z,13.33
2023-05-17T02:57:11.731Z,13.31
2023-05-17T02:58:11.763Z,13.17
2023-05-17T02:59:11.762Z,13.11
2023-05-17T03:00:11.787Z,13.10
2023-05-17T03:01:11.789Z,11.27
2023-05-17T03:02:11.874Z,8.39
2023-05-17T03:03:12.008Z,7.17
2023-05-17T03:04:11.910Z,5.59
2023-05-17T03:05:11.831Z,4.52
2023-05-17T03:06:11.845Z,3.84
2023-05-17T03:07:11.846Z,3.12
2023-05-17T03:08:11.869Z,2.69
2023-05-17T03:09:11.882Z,2.28
2023-05-17T03:10:11.889Z,1.88
2023-05-17T03:11:11.903Z,1.58
2023-05-17T03:12:11.918Z,1.34
2023-05-17T03:13:11.954Z,1.17
2023-05-17T03:14:11.946Z,1.04
2023-05-17T03:15:11.968Z,0.94
2023-05-17T03:16:11.981Z,0.83
2023-05-17T03:17:12.055Z,0.76
2023-05-17T03:18:12.173Z,0.65
2023-05-17T03:19:12.576Z,0.61
2023-05-17T03:20:12.266Z,0.55
2023-05-17T03:21:12.353Z,0.50
2023-05-17T03:22:12.403Z,0.50
2023-05-17T03:23:12.483Z,0.49
2023-05-17T03:24:12.546Z,0.50
2023-05-17T03:25:12.618Z,0.50
2023-05-17T03:26:12.688Z,0.50
2023-05-17T03:27:12.777Z,0.50
2023-05-17T03:28:12.859Z,0.50
2023-05-17T03:29:12.921Z,0.50
2023-05-17T03:30:12.992Z,0.51
2023-05-17T03:31:13.080Z,0.50
2023-05-17T03:32:13.178Z,0.50
2023-05-17T03:33:13.342Z,0.50
2023-05-17T03:34:13.362Z,0.50
2023-05-17T03:35:13.593Z,0.50
2023-05-17T03:36:13.500Z,0.50
2023-05-17T03:37:13.601Z,0.50
2023-05-17T03:38:13.689Z,0.51
2023-05-17T03:39:13.759Z,0.51
2023-05-17T03:40:13.795Z,0.50
2023-05-17T03:41:13.820Z,0.48
2023-05-17T03:42:13.836Z,0.47
2023-05-17T03:43:13.873Z,0.45
2023-05-17T03:44:13.891Z,0.44
2023-05-17T03:45:13.925Z,0.50
2023-05-17T03:46:13.939Z,0.50
2023-05-17T03:47:13.968Z,0.51
2023-05-17T03:48:14.040Z,0.51
2023-05-17T03:49:14.133Z,0.50
2023-05-17T03:50:14.191Z,0.50
2023-05-17T03:51:14.349Z,0.50
2023-05-17T03:52:14.374Z,0.50
2023-05-17T03:53:14.464Z,0.51
2023-05-17T03:54:14.552Z,0.50
2023-05-17T03:55:14.641Z,0.50
2023-05-17T03:56:14.744Z,0.50
2023-05-17T03:57:14.828Z,0.50
2023-05-17T03:58:14.848Z,0.50
2023-05-17T03:59:14.872Z,0.48
2023-05-17T04:00:14.887Z,0.49
2023-05-17T04:01:14.903Z,0.49
2023-05-17T04:02:14.926Z,0.48
2023-05-17T04:03:14.950Z,0.51
2023-05-17T04:04:15.002Z,0.50
2023-05-17T04:05:15.049Z,0.51
2023-05-17T04:06:15.013Z,0.51
2023-05-17T04:07:15.143Z,0.51
2023-05-17T04:08:15.070Z,0.51
2023-05-17T04:09:15.105Z,0.50
2023-05-17T04:10:15.196Z,0.51
2023-05-17T04:11:15.256Z,0.52
2023-05-17T04:12:15.364Z,0.51
2023-05-17T04:13:15.473Z,0.51
2023-05-17T04:14:15.545Z,0.51
2023-05-17T04:15:15.618Z,0.52
2023-05-17T04:16:15.701Z,0.52
2023-05-17T04:17:16.968Z,0.52
2023-05-17T04:18:15.930Z,0.51
2023-05-17T04:19:16.135Z,0.56
2023-05-17T04:20:16.066Z,0.59
2023-05-17T04:21:16.135Z,0.64
2023-05-17T04:22:16.231Z,0.77
2023-05-17T04:23:16.438Z,0.85
2023-05-17T04:24:16.400Z,0.91
2023-05-17T04:25:16.411Z,0.92
2023-05-17T04:26:16.447Z,0.94
2023-05-17T04:27:16.474Z,0.99
2023-05-17T04:28:16.493Z,1.12
2023-05-17T04:29:16.471Z,1.28
2023-05-17T04:30:16.485Z,1.50
2023-05-17T04:31:16.522Z,1.48
2023-05-17T04:32:16.536Z,1.48
2023-05-17T04:33:16.672Z,1.55
2023-05-17T04:34:16.635Z,1.62
2023-05-17T04:35:16.664Z,1.68
2023-05-17T04:36:16.736Z,1.74
2023-05-17T04:37:16.810Z,1.87
2023-05-17T04:38:16.901Z,1.78
2023-05-17T04:39:17.039Z,2.01
2023-05-17T04:40:17.037Z,2.07
2023-05-17T04:41:17.106Z,2.15
2023-05-17T04:42:17.177Z,2.12
2023-05-17T04:43:17.252Z,2.13
2023-05-17T04:44:17.379Z,2.22
2023-05-17T04:45:17.391Z,2.28
2023-05-17T04:46:17.460Z,2.21
2023-05-17T04:47:17.520Z,2.32
2023-05-17T04:48:17.724Z,2.58
2023-05-17T04:49:17.627Z,2.49
2023-05-17T04:50:17.705Z,2.27
2023-05-17T04:51:17.763Z,2.03
2023-05-17T04:52:17.815Z,1.86
2023-05-17T04:53:17.889Z,1.84
2023-05-17T04:54:17.950Z,1.52
2023-05-17T04:55:18.199Z,1.41
2023-05-17T04:56:18.088Z,1.36
2023-05-17T04:57:18.151Z,1.34
2023-05-17T04:58:18.220Z,1.26
2023-05-17T04:59:18.290Z,1.30
2023-05-17T05:00:18.363Z,1.28
2023-05-17T05:01:18.423Z,1.21
2023-05-17T05:02:18.486Z,1.23
2023-05-17T05:03:18.608Z,1.29
2023-05-17T05:04:18.707Z,1.35
2023-05-17T05:05:18.680Z,1.38
2023-05-17T05:06:18.775Z,1.41
2023-05-17T05:07:18.809Z,1.40
2023-05-17T05:08:18.898Z,1.43
2023-05-17T05:09:18.960Z,1.39
2023-05-17T05:10:18.960Z,1.34
2023-05-17T05:11:19.093Z,1.29
2023-05-17T05:12:19.000Z,1.21
2023-05-17T05:13:19.001Z,1.21
2023-05-17T05:14:19.014Z,1.27
2023-05-17T05:15:19.063Z,1.20
2023-05-17T05:16:19.039Z,1.12
2023-05-17T05:17:19.202Z,1.08
2023-05-17T05:18:19.194Z,1.03
2023-05-17T05:19:19.420Z,1.00
2023-05-17T05:20:19.119Z,1.00
2023-05-17T05:21:19.121Z,1.04
2023-05-17T05:22:19.130Z,1.01
2023-05-17T05:23:19.192Z,0.99
2023-05-17T05:24:19.185Z,0.99
2023-05-17T05:25:19.256Z,0.98
2023-05-17T05:26:19.308Z,0.99
2023-05-17T05:27:19.399Z,0.98
2023-05-17T05:28:19.342Z,0.97
2023-05-17T05:29:19.376Z,0.98
2023-05-17T05:30:19.396Z,0.99
2023-05-17T05:31:19.404Z,1.03
2023-05-17T05:32:19.435Z,1.12
2023-05-17T05:33:19.533Z,1.26
2023-05-17T05:34:19.474Z,1.41
2023-05-17T05:35:19.484Z,1.60
2023-05-17T05:36:19.513Z,1.81
2023-05-17T05:37:19.516Z,2.02
2023-05-17T05:38:19.568Z,2.33
2023-05-17T05:39:19.564Z,2.55
2023-05-17T05:40:19.560Z,3.02
2023-05-17T05:41:19.589Z,3.45
2023-05-17T05:42:19.645Z,3.95
2023-05-17T05:43:19.888Z,3.88
2023-05-17T05:44:19.743Z,4.04
2023-05-17T05:45:19.785Z,4.57
2023-05-17T05:46:19.824Z,5.02
2023-05-17T05:48:39.124Z,0.50
2023-05-17T05:49:39.053Z,0.50
2023-05-17T05:50:39.056Z,0.50
2023-05-17T05:51:39.052Z,0.50
2023-05-17T05:52:39.085Z,0.50
2023-05-17T05:53:39.139Z,0.50
2023-05-17T05:54:39.125Z,0.50
2023-05-17T05:55:39.130Z,0.50
2023-05-17T05:56:39.163Z,0.50
2023-05-17T05:57:39.195Z,0.51
2023-05-17T05:58:39.296Z,0.52
2023-05-17T05:59:39.230Z,0.50
2023-05-17T06:00:39.261Z,0.53
2023-05-17T06:01:39.298Z,0.53
2023-05-17T06:02:39.329Z,0.54
2023-05-17T06:03:39.312Z,0.50
2023-05-17T06:04:45.051Z,0.52
2023-05-17T06:05:40.489Z,0.51
2023-05-17T06:06:39.524Z,0.52
2023-05-17T06:07:39.402Z,0.53
2023-05-17T06:08:39.390Z,0.48
2023-05-17T06:09:39.430Z,0.49
2023-05-17T06:10:39.427Z,0.53
2023-05-17T06:11:39.464Z,0.53
2023-05-17T06:12:39.471Z,0.55
2023-05-17T06:13:39.500Z,0.59
2023-05-17T06:14:39.561Z,0.58
2023-05-17T06:15:39.539Z,0.56
2023-05-17T06:16:39.541Z,0.56
2023-05-17T06:17:39.585Z,0.50
2023-05-17T06:18:39.607Z,0.50
2023-05-17T06:19:39.658Z,0.50
2023-05-17T06:20:39.610Z,0.53
2023-05-17T06:21:39.631Z,0.55
2023-05-17T06:22:39.656Z,0.61
2023-05-17T06:23:39.662Z,0.69
2023-05-17T06:24:39.689Z,0.64
2023-05-17T06:25:39.693Z,0.52
2023-05-17T06:26:39.724Z,0.51
2023-05-17T06:27:39.739Z,0.54
2023-05-17T06:28:39.800Z,0.61
2023-05-17T06:29:39.831Z,0.64
2023-05-17T06:30:39.951Z,0.68
2023-05-17T06:31:39.918Z,0.63
2023-05-17T06:32:40.037Z,0.67
2023-05-17T06:33:40.001Z,0.67
2023-05-17T06:34:39.986Z,0.70
2023-05-17T06:35:54.898Z,0.81
2023-05-17T06:36:41.049Z,0.69
2023-05-17T06:37:40.056Z,0.77
2023-05-17T06:38:40.051Z,1.00
2023-05-17T06:39:40.093Z,1.48
2023-05-17T06:40:40.088Z,2.76
2023-05-17T06:41:40.098Z,3.32
2023-05-17T06:42:40.149Z,3.69
2023-05-17T06:43:40.122Z,4.09
2023-05-17T06:44:40.134Z,4.07
2023-05-17T06:45:40.149Z,2.26
2023-05-17T06:46:40.438Z,1.32
2023-05-17T06:47:40.221Z,0.81
2023-05-17T06:48:40.388Z,0.70
2023-05-17T06:49:40.214Z,0.59
2023-05-17T06:50:40.245Z,0.57
2023-05-17T06:51:40.273Z,0.59
2023-05-17T06:52:40.317Z,0.62
2023-05-17T06:53:40.378Z,0.60
2023-05-17T06:54:40.452Z,0.67
2023-05-17T06:55:40.533Z,0.68
2023-05-17T06:56:40.620Z,0.72
2023-05-17T06:57:40.729Z,0.74
2023-05-17T06:58:40.802Z,0.76
2023-05-17T06:59:40.875Z,0.81
2023-05-17T07:00:40.971Z,0.93
2023-05-17T07:01:41.048Z,1.01
2023-05-17T07:02:41.287Z,1.13
2023-05-17T07:03:41.274Z,1.30
2023-05-17T07:04:41.277Z,1.41
2023-05-17T07:05:41.337Z,1.56
2023-05-17T07:06:41.426Z,1.69
2023-05-17T07:07:41.502Z,1.72
2023-05-17T07:08:41.581Z,1.84
2023-05-17T07:09:41.656Z,1.85
2023-05-17T07:10:41.709Z,1.73
2023-05-17T07:11:41.781Z,1.76
2023-05-17T07:12:41.823Z,1.71
2023-05-17T07:13:41.876Z,1.76
2023-05-17T07:14:41.923Z,1.79
2023-05-17T07:15:41.996Z,1.83
2023-05-17T07:16:42.024Z,1.89
2023-05-17T07:17:42.169Z,1.95
2023-05-17T07:18:42.314Z,2.18
2023-05-17T07:19:42.490Z,2.20
2023-05-17T07:20:42.302Z,2.22
2023-05-17T07:21:42.403Z,2.24
2023-05-17T07:22:42.437Z,2.18
2023-05-17T07:23:42.484Z,2.22
2023-05-17T07:24:42.556Z,2.34
2023-05-17T07:25:42.590Z,2.39
2023-05-17T07:26:42.640Z,2.40
2023-05-17T07:27:42.699Z,2.41
2023-05-17T07:28:42.761Z,2.22
2023-05-17T07:29:42.804Z,0.90
2023-05-17T07:30:42.858Z,0.59
2023-05-17T07:31:42.919Z,0.45
2023-05-17T07:32:43.092Z,0.52
2023-05-17T07:33:43.094Z,0.56
2023-05-17T07:34:43.411Z,0.56
2023-05-17T07:35:43.143Z,0.59
2023-05-17T07:36:43.162Z,0.69
2023-05-17T07:37:43.183Z,0.91
2023-05-17T07:38:43.194Z,1.27
2023-05-17T07:39:43.214Z,1.47
2023-05-17T07:40:43.239Z,1.62
2023-05-17T07:41:43.251Z,1.85
2023-05-17T07:42:43.280Z,1.95
2023-05-17T07:43:43.302Z,2.10
2023-05-17T07:44:43.318Z,2.22
2023-05-17T07:45:43.361Z,2.32
2023-05-17T07:46:43.453Z,2.47
2023-05-17T07:47:43.628Z,2.71
2023-05-17T07:48:43.670Z,2.88
2023-05-17T07:49:43.618Z,2.77
2023-05-17T07:50:43.994Z,2.80
2023-05-17T07:51:43.758Z,2.76
2023-05-17T07:52:43.846Z,2.93
2023-05-17T07:53:43.889Z,3.28
2023-05-17T07:54:43.941Z,3.99
2023-05-17T07:55:44.002Z,4.49
2023-05-17T07:56:44.036Z,4.94
2023-05-17T07:57:44.143Z,5.29
2023-05-17T07:58:44.119Z,5.88
2023-05-17T07:59:44.147Z,6.54
2023-05-17T08:00:44.184Z,6.80
2023-05-17T08:01:44.195Z,6.83
2023-05-17T08:02:44.253Z,6.98
2023-05-17T08:03:44.218Z,7.42
2023-05-17T08:04:44.291Z,8.31
2023-05-17T08:05:44.294Z,9.41
2023-05-17T08:06:44.487Z,9.61
2023-05-17T08:07:44.279Z,9.96
2023-05-17T08:08:44.348Z,9.02
2023-05-17T08:09:44.338Z,8.84
2023-05-17T08:10:44.307Z,8.96
2023-05-17T08:11:44.336Z,8.54
2023-05-17T08:12:44.346Z,9.09
2023-05-17T08:13:44.367Z,8.21
2023-05-17T08:14:44.343Z,8.22
2023-05-17T08:15:44.395Z,8.24
2023-05-17T08:16:44.356Z,8.45
2023-05-17T08:17:44.450Z,8.73
2023-05-17T08:18:44.516Z,9.83
2023-05-17T08:19:44.495Z,9.99
2023-05-17T08:20:44.482Z,9.63
2023-05-17T08:21:44.442Z,9.22
2023-05-17T08:22:44.537Z,8.64
2023-05-17T08:23:44.436Z,8.66
2023-05-17T08:24:44.425Z,8.60
2023-05-17T08:25:44.475Z,8.61
2023-05-17T08:26:44.433Z,8.85
2023-05-17T08:27:44.471Z,8.59
2023-05-17T08:28:44.540Z,8.64
2023-05-17T08:29:44.611Z,9.01
2023-05-17T08:30:44.683Z,8.68
2023-05-17T08:31:44.751Z,7.98
2023-05-17T08:32:44.947Z,8.58
2023-05-17T08:33:44.934Z,8.24
2023-05-17T08:34:44.961Z,7.82
2023-05-17T08:35:45.003Z,7.31
2023-05-17T08:36:45.031Z,7.22
2023-05-17T08:37:45.035Z,6.93
2023-05-17T08:38:45.036Z,6.38
2023-05-17T08:39:45.092Z,6.40
2023-05-17T08:40:45.034Z,6.34
2023-05-17T08:41:45.041Z,6.29
2023-05-17T08:42:45.043Z,6.08
2023-05-17T08:43:45.050Z,6.44
2023-05-17T08:44:45.050Z,6.69
2023-05-17T08:45:45.051Z,6.72
2023-05-17T08:46:45.113Z,6.97
2023-05-17T08:47:45.189Z,7.02
2023-05-17T08:48:45.298Z,7.08
2023-05-17T08:49:47.591Z,7.71
2023-05-17T08:50:45.301Z,7.86
2023-05-17T08:51:45.316Z,7.72
2023-05-17T08:52:45.363Z,7.74
2023-05-17T08:53:45.308Z,7.91
2023-05-17T08:54:45.343Z,8.69
2023-05-17T08:55:45.320Z,10.77
2023-05-17T08:56:45.340Z,14.94
2023-05-17T08:57:45.338Z,16.66
2023-05-17T08:58:56.599Z,18.64
2023-05-17T08:59:46.328Z,18.68
2023-05-17T09:00:45.315Z,18.79
2023-05-17T09:01:45.315Z,18.88
2023-05-17T09:02:45.395Z,19.05
2023-05-17T09:03:45.421Z,20.07
2023-05-17T09:04:45.449Z,19.39
2023-05-17T09:05:45.370Z,18.21
2023-05-17T09:06:45.415Z,14.97
2023-05-17T09:07:45.384Z,12.80
2023-05-17T09:08:45.429Z,20.77
2023-05-17T09:09:45.498Z,17.91
2023-05-17T09:10:45.552Z,15.42
2023-05-17T09:11:45.611Z,13.97
2023-05-17T09:12:45.666Z,12.07
2023-05-17T09:13:45.751Z,11.64
2023-05-17T09:14:45.822Z,11.08
2023-05-17T09:15:45.883Z,10.51
2023-05-17T09:16:45.951Z,10.78
2023-05-17T09:17:46.014Z,10.37
2023-05-17T09:18:46.072Z,10.06
2023-05-17T09:19:46.137Z,10.42
2023-05-17T09:20:45.970Z,10.40
2023-05-17T09:21:45.992Z,10.84
2023-05-17T09:22:45.977Z,10.49
2023-05-17T09:23:51.486Z,11.25
2023-05-17T09:24:46.986Z,11.26
2023-05-17T09:25:45.995Z,11.41
2023-05-17T09:26:46.194Z,11.61
2023-05-17T09:27:46.001Z,11.76
2023-05-17T09:28:46.003Z,12.27
2023-05-17T09:29:46.005Z,13.08
2023-05-17T09:30:46.009Z,14.15
2023-05-17T09:31:46.006Z,13.80
2023-05-17T09:32:46.117Z,14.98
2023-05-17T09:33:46.100Z,14.20
2023-05-17T09:34:46.017Z,14.09
2023-05-17T09:35:46.057Z,13.90
2023-05-17T09:36:46.115Z,13.26
2023-05-17T09:37:46.162Z,12.88
2023-05-17T09:38:46.141Z,12.90
2023-05-17T09:39:46.187Z,12.64
2023-05-17T09:40:46.135Z,12.50
2023-05-17T09:41:46.144Z,12.12
2023-05-17T09:42:46.138Z,11.04
2023-05-17T09:43:46.142Z,10.68
2023-05-17T09:44:46.134Z,9.50
2023-05-17T09:45:46.135Z,8.06
2023-05-17T09:46:46.215Z,7.52
2023-05-17T09:47:46.195Z,6.98
2023-05-17T09:48:46.211Z,6.15
2023-05-17T09:49:46.195Z,5.09
2023-05-17T09:50:46.145Z,4.57
2023-05-17T09:51:46.150Z,4.13
2023-05-17T09:52:46.162Z,3.90
2023-05-17T09:53:46.186Z,3.53
2023-05-17T09:54:46.185Z,3.15
2023-05-17T09:55:46.190Z,2.99
2023-05-17T09:56:46.189Z,2.84
2023-05-17T09:57:46.188Z,2.81
2023-05-17T09:58:46.203Z,2.77
2023-05-17T09:59:46.197Z,2.73
2023-05-17T10:00:47.261Z,2.76
2023-05-17T10:01:46.224Z,2.70
2023-05-17T10:02:46.262Z,2.63
2023-05-17T10:03:46.255Z,2.61
2023-05-17T10:04:46.270Z,2.66
2023-05-17T10:05:46.238Z,2.57
2023-05-17T10:06:49.801Z,2.55
2023-05-17T10:07:47.239Z,2.55
2023-05-17T10:08:46.250Z,2.58
2023-05-17T10:09:46.229Z,2.62
2023-05-17T10:10:46.248Z,2.72
2023-05-17T10:11:46.305Z,2.91
2023-05-17T10:12:46.250Z,2.71
2023-05-17T10:13:46.289Z,2.84
2023-05-17T10:14:46.344Z,2.86
2023-05-17T10:15:46.279Z,2.66
2023-05-17T10:16:46.274Z,2.35
2023-05-17T10:17:46.405Z,2.36
2023-05-17T10:18:46.523Z,2.21
2023-05-17T10:19:46.666Z,2.13
2023-05-17T10:20:46.504Z,2.13
2023-05-17T10:21:46.496Z,2.15
2023-05-17T10:22:46.553Z,2.18
2023-05-17T10:23:46.527Z,2.21
2023-05-17T10:24:46.516Z,2.41
2023-05-17T10:25:46.530Z,2.55
2023-05-17T10:26:46.533Z,2.94
2023-05-17T10:27:46.553Z,2.67
2023-05-17T10:28:47.238Z,2.90
2023-05-17T10:29:49.249Z,2.75
2023-05-17T10:30:46.636Z,2.66
2023-05-17T10:31:46.598Z,2.72
2023-05-17T10:32:46.647Z,3.00
2023-05-17T10:33:46.721Z,2.99
2023-05-17T10:34:54.429Z,3.01
2023-05-17T10:35:47.596Z,3.03
2023-05-17T10:36:46.619Z,3.06
2023-05-17T10:37:46.599Z,3.04
2023-05-17T10:38:46.604Z,3.12
2023-05-17T10:39:46.613Z,3.20
2023-05-17T10:40:46.612Z,3.37
2023-05-17T10:41:46.663Z,3.76
2023-05-17T10:42:46.619Z,3.57
2023-05-17T10:43:46.622Z,3.44
2023-05-17T10:44:46.631Z,3.54
2023-05-17T10:45:46.627Z,3.43
2023-05-17T10:46:46.656Z,3.36
2023-05-17T10:47:46.782Z,2.88
2023-05-17T10:48:46.831Z,3.44
2023-05-17T10:49:46.880Z,3.22
2023-05-17T10:50:54.409Z,2.82
2023-05-17T10:51:47.944Z,2.63
2023-05-17T10:52:46.969Z,2.48
2023-05-17T10:53:46.979Z,2.25
2023-05-17T10:54:46.963Z,2.19
2023-05-17T10:55:46.977Z,2.11
2023-05-17T10:56:46.987Z,1.99
2023-05-17T10:57:51.004Z,2.03
2023-05-17T10:58:47.032Z,2.11
2023-05-17T10:59:47.015Z,2.16
2023-05-17T11:00:47.033Z,2.27
2023-05-17T11:01:47.039Z,2.33
2023-05-17T11:02:47.070Z,2.35
2023-05-17T11:03:47.058Z,2.52
2023-05-17T11:04:47.187Z,2.54
2023-05-17T11:05:48.111Z,2.75
2023-05-17T11:06:47.140Z,2.72
2023-05-17T11:07:47.069Z,3.07
2023-05-17T11:08:47.080Z,2.97
2023-05-17T11:09:47.087Z,2.96
2023-05-17T11:10:47.086Z,3.00
2023-05-17T11:11:47.109Z,3.02
2023-05-17T11:12:47.109Z,3.29
2023-05-17T11:13:47.141Z,3.37
2023-05-17T11:14:47.133Z,3.62
2023-05-17T11:15:47.185Z,3.76
2023-05-17T11:16:47.270Z,3.89
2023-05-17T11:17:47.339Z,3.58
2023-05-17T11:18:47.630Z,3.38
2023-05-17T11:19:47.586Z,3.58
2023-05-17T11:20:47.648Z,2.94
2023-05-17T11:21:47.738Z,2.64
2023-05-17T11:22:47.705Z,2.45
2023-05-17T11:23:47.776Z,2.29
2023-05-17T11:24:47.842Z,2.11
2023-05-17T11:25:47.919Z,2.38
2023-05-17T11:26:47.989Z,2.83
2023-05-17T11:27:48.061Z,2.20
2023-05-17T11:28:48.164Z,2.31
2023-05-17T11:29:48.203Z,2.08
2023-05-17T11:30:48.270Z,2.00
2023-05-17T11:31:48.335Z,1.76
2023-05-17T11:32:48.427Z,1.64
2023-05-17T11:33:48.520Z,1.58
2023-05-17T11:34:48.562Z,1.58
2023-05-17T11:35:50.620Z,1.60
2023-05-17T11:36:48.628Z,1.81
2023-05-17T11:37:48.658Z,1.77
2023-05-17T11:38:52.229Z,1.82
2023-05-17T11:39:49.687Z,1.82
2023-05-17T11:40:48.692Z,1.84
2023-05-17T11:41:48.702Z,1.85
2023-05-17T11:42:48.701Z,1.96
2023-05-17T11:43:48.701Z,1.83
2023-05-17T11:44:48.702Z,1.87
2023-05-17T11:45:51.318Z,1.83
2023-05-17T11:46:48.712Z,1.83
2023-05-17T11:47:48.795Z,1.89
2023-05-17T11:48:48.770Z,2.01
2023-05-17T11:49:48.746Z,2.17
2023-05-17T11:50:48.769Z,2.84
2023-05-17T11:51:48.731Z,2.84
2023-05-17T11:52:48.742Z,2.70
2023-05-17T11:53:48.734Z,2.53
2023-05-17T11:54:48.729Z,2.42
2023-05-17T11:55:48.768Z,2.58
2023-05-17T11:56:48.812Z,2.50
2023-05-17T11:57:48.893Z,2.73
2023-05-17T11:58:48.964Z,2.53
2023-05-17T11:59:49.049Z,2.53
2023-05-17T12:00:49.110Z,2.77
2023-05-17T12:01:49.178Z,2.56
2023-05-17T12:02:49.283Z,2.84
2023-05-17T12:03:49.322Z,2.84
2023-05-17T12:04:49.425Z,2.64
2023-05-17T12:05:49.490Z,2.63
2023-05-17T12:06:49.693Z,2.67
2023-05-17T12:07:49.596Z,2.63
2023-05-17T12:08:49.674Z,2.79
2023-05-17T12:09:49.733Z,2.97
2023-05-17T12:10:49.798Z,3.01
2023-05-17T12:11:49.861Z,3.04
2023-05-17T12:12:49.940Z,3.02
2023-05-17T12:13:50.012Z,3.32
2023-05-17T12:14:50.050Z,3.55
2023-05-17T12:15:50.121Z,3.54
2023-05-17T12:16:50.213Z,3.80
2023-05-17T12:17:51.859Z,3.46
2023-05-17T12:18:50.749Z,3.57
2023-05-17T12:19:50.562Z,3.75
2023-05-17T12:20:50.432Z,3.69
2023-05-17T12:21:50.515Z,3.68
2023-05-17T12:22:50.617Z,3.78
2023-05-17T12:23:51.129Z,4.42
2023-05-17T12:24:50.690Z,4.43
2023-05-17T12:25:50.714Z,4.04
2023-05-17T12:26:50.737Z,4.10
2023-05-17T12:27:50.794Z,4.04
2023-05-17T12:28:50.899Z,4.02
2023-05-17T12:29:50.893Z,4.65
2023-05-17T12:30:50.962Z,4.29
2023-05-17T12:31:51.008Z,4.92
2023-05-17T12:32:51.164Z,4.99
2023-05-17T12:33:51.275Z,5.16
2023-05-17T12:34:51.186Z,4.92
2023-05-17T12:35:51.265Z,5.44
2023-05-17T12:36:51.330Z,5.82
2023-05-17T12:37:51.387Z,6.45
2023-05-17T12:38:51.448Z,6.79
2023-05-17T12:39:51.508Z,7.41
2023-05-17T12:40:51.580Z,7.83
2023-05-17T12:41:51.661Z,7.64
2023-05-17T12:42:51.720Z,7.44
2023-05-17T12:43:57.069Z,7.87
2023-05-17T12:44:52.829Z,7.89
2023-05-17T12:45:51.798Z,7.99
2023-05-17T12:46:51.811Z,8.25
2023-05-17T12:47:51.833Z,8.87
2023-05-17T12:48:51.967Z,9.75
2023-05-17T12:49:51.834Z,10.15
2023-05-17T12:50:51.829Z,10.29
2023-05-17T12:51:51.852Z,10.46
2023-05-17T12:52:51.836Z,10.84
2023-05-17T12:53:51.871Z,10.33
2023-05-17T12:54:51.872Z,10.87
2023-05-17T12:55:51.917Z,11.11
2023-05-17T12:56:51.980Z,11.20
2023-05-17T12:57:52.037Z,10.89
2023-05-17T12:58:52.151Z,11.27
2023-05-17T12:59:52.160Z,11.12
2023-05-17T13:00:52.222Z,11.76
2023-05-17T13:01:52.286Z,11.43
2023-05-17T13:02:52.417Z,7.79
2023-05-17T13:03:52.505Z,4.51
2023-05-17T13:04:52.516Z,4.26
2023-05-17T13:05:52.563Z,3.78
2023-05-17T13:06:52.623Z,3.16
2023-05-17T13:07:52.694Z,3.17
2023-05-17T13:08:52.781Z,2.60
2023-05-17T13:09:52.851Z,2.20
2023-05-17T13:10:52.943Z,1.72
2023-05-17T13:11:52.998Z,1.28